sensor_id;sensor_type;location;lat;lon;timestamp;pressure;altitude;pressure_sealevel;temperature
71649;BMP180;59492;45.638;11.714;2022-09-02T00:01:36;101126.40;;;27.90
71649;BMP180;59492;45.638;11.714;2022-09-02T00:04:05;101129.00;;;27.82
71649;BMP180;59492;45.638;11.714;2022-09-02T00:06:31;101125.80;;;27.80
71649;BMP180;59492;45.638;11.714;2022-09-02T00:08:58;101123.60;;;27.80
71649;BMP180;59492;45.638;11.714;2022-09-02T00:11:27;101120.40;;;27.70
71649;BMP180;59492;45.638;11.714;2022-09-02T00:13:59;101119.20;;;27.70
71649;BMP180;59492;45.638;11.714;2022-09-02T00:16:32;101113.20;;;27.66
71649;BMP180;59492;45.638;11.714;2022-09-02T00:19:05;101113.80;;;27.60
71649;BMP180;59492;45.638;11.714;2022-09-02T00:21:32;101112.60;;;27.56
71649;BMP180;59492;45.638;11.714;2022-09-02T00:24:02;101106.60;;;27.50
71649;BMP180;59492;45.638;11.714;2022-09-02T00:26:29;101103.20;;;27.50
71649;BMP180;59492;45.638;11.714;2022-09-02T00:28:58;101103.60;;;27.44
71649;BMP180;59492;45.638;11.714;2022-09-02T00:31:27;101102.60;;;27.40
71649;BMP180;59492;45.638;11.714;2022-09-02T00:33:56;101101.60;;;27.40
71649;BMP180;59492;45.638;11.714;2022-09-02T00:36:22;101098.80;;;27.34
71649;BMP180;59492;45.638;11.714;2022-09-02T00:38:48;101095.80;;;27.30
71649;BMP180;59492;45.638;11.714;2022-09-02T00:41:14;101102.20;;;27.30
71649;BMP180;59492;45.638;11.714;2022-09-02T00:43:45;101100.20;;;27.26
71649;BMP180;59492;45.638;11.714;2022-09-02T00:46:14;101101.60;;;27.20
71649;BMP180;59492;45.638;11.714;2022-09-02T00:51:35;101094.00;;;27.10
71649;BMP180;59492;45.638;11.714;2022-09-02T00:54:03;101092.80;;;27.10
71649;BMP180;59492;45.638;11.714;2022-09-02T00:56:31;101094.20;;;27.08
71649;BMP180;59492;45.638;11.714;2022-09-02T00:58:57;101092.80;;;27.06
71649;BMP180;59492;45.638;11.714;2022-09-02T01:01:27;101085.40;;;27.00
71649;BMP180;59492;45.638;11.714;2022-09-02T01:03:56;101086.20;;;27.00
71649;BMP180;59492;45.638;11.714;2022-09-02T01:06:30;101086.00;;;27.00
71649;BMP180;59492;45.638;11.714;2022-09-02T01:09:13;101085.40;;;26.92
71649;BMP180;59492;45.638;11.714;2022-09-02T01:11:46;101084.20;;;26.90
71649;BMP180;59492;45.638;11.714;2022-09-02T01:14:15;101086.40;;;26.90
71649;BMP180;59492;45.638;11.714;2022-09-02T01:16:51;101092.40;;;26.88
71649;BMP180;59492;45.638;11.714;2022-09-02T01:19:42;101084.60;;;26.84
71649;BMP180;59492;45.638;11.714;2022-09-02T01:22:35;101084.40;;;26.80
71649;BMP180;59492;45.638;11.714;2022-09-02T01:25:17;101090.20;;;26.76
71649;BMP180;59492;45.638;11.714;2022-09-02T01:27:46;101090.60;;;26.74
71649;BMP180;59492;45.638;11.714;2022-09-02T01:30:24;101089.80;;;26.72
71649;BMP180;59492;45.638;11.714;2022-09-02T01:32:52;101084.80;;;26.70
71649;BMP180;59492;45.638;11.714;2022-09-02T01:35:18;101088.00;;;26.70
71649;BMP180;59492;45.638;11.714;2022-09-02T01:37:48;101090.00;;;26.70
71649;BMP180;59492;45.638;11.714;2022-09-02T01:40:16;101091.20;;;26.68
71649;BMP180;59492;45.638;11.714;2022-09-02T01:42:45;101093.80;;;26.66
71649;BMP180;59492;45.638;11.714;2022-09-02T01:45:12;101089.40;;;26.60
71649;BMP180;59492;45.638;11.714;2022-09-02T01:47:40;101088.40;;;26.60
71649;BMP180;59492;45.638;11.714;2022-09-02T01:50:07;101087.20;;;26.60
71649;BMP180;59492;45.638;11.714;2022-09-02T01:52:33;101088.60;;;26.60
71649;BMP180;59492;45.638;11.714;2022-09-02T01:55:01;101088.40;;;26.60
71649;BMP180;59492;45.638;11.714;2022-09-02T01:57:26;101084.00;;;26.56
71649;BMP180;59492;45.638;11.714;2022-09-02T02:00:06;101088.00;;;26.50
71649;BMP180;59492;45.638;11.714;2022-09-02T02:02:43;101089.00;;;26.50
71649;BMP180;59492;45.638;11.714;2022-09-02T02:05:10;101084.00;;;26.50
71649;BMP180;59492;45.638;11.714;2022-09-02T02:07:42;101076.20;;;26.50
71649;BMP180;59492;45.638;11.714;2022-09-02T02:10:19;101074.40;;;26.48
71649;BMP180;59492;45.638;11.714;2022-09-02T02:12:45;101071.80;;;26.42
71649;BMP180;59492;45.638;11.714;2022-09-02T02:15:18;101071.20;;;26.40
71649;BMP180;59492;45.638;11.714;2022-09-02T02:18:04;101074.20;;;26.40
71649;BMP180;59492;45.638;11.714;2022-09-02T02:20:30;101069.60;;;26.36
71649;BMP180;59492;45.638;11.714;2022-09-02T02:23:11;101070.00;;;26.32
71649;BMP180;59492;45.638;11.714;2022-09-02T02:25:37;101072.80;;;26.34
71649;BMP180;59492;45.638;11.714;2022-09-02T02:28:10;101069.60;;;26.34
71649;BMP180;59492;45.638;11.714;2022-09-02T02:30:36;101065.00;;;26.30
71649;BMP180;59492;45.638;11.714;2022-09-02T02:33:22;101060.40;;;26.30
71649;BMP180;59492;45.638;11.714;2022-09-02T02:35:48;101058.20;;;26.30
71649;BMP180;59492;45.638;11.714;2022-09-02T02:38:17;101056.00;;;26.30
71649;BMP180;59492;45.638;11.714;2022-09-02T02:40:43;101051.00;;;26.30
71649;BMP180;59492;45.638;11.714;2022-09-02T02:43:09;101048.20;;;26.28
71649;BMP180;59492;45.638;11.714;2022-09-02T02:45:34;101043.60;;;26.24
71649;BMP180;59492;45.638;11.714;2022-09-02T02:48:01;101044.20;;;26.22
71649;BMP180;59492;45.638;11.714;2022-09-02T02:50:27;101041.60;;;26.20
71649;BMP180;59492;45.638;11.714;2022-09-02T02:52:53;101047.40;;;26.20
71649;BMP180;59492;45.638;11.714;2022-09-02T02:55:22;101054.40;;;26.20
71649;BMP180;59492;45.638;11.714;2022-09-02T02:57:54;101056.20;;;26.20
71649;BMP180;59492;45.638;11.714;2022-09-02T03:00:30;101053.80;;;26.18
71649;BMP180;59492;45.638;11.714;2022-09-02T03:03:02;101051.80;;;26.16
71649;BMP180;59492;45.638;11.714;2022-09-02T03:05:32;101049.40;;;26.12
71649;BMP180;59492;45.638;11.714;2022-09-02T03:08:00;101048.80;;;26.10
71649;BMP180;59492;45.638;11.714;2022-09-02T03:10:28;101044.40;;;26.10
71649;BMP180;59492;45.638;11.714;2022-09-02T03:13:01;101040.20;;;26.10
71649;BMP180;59492;45.638;11.714;2022-09-02T03:15:27;101034.80;;;26.10
71649;BMP180;59492;45.638;11.714;2022-09-02T03:17:56;101035.80;;;26.10
71649;BMP180;59492;45.638;11.714;2022-09-02T03:20:23;101032.80;;;26.10
71649;BMP180;59492;45.638;11.714;2022-09-02T03:22:52;101033.40;;;26.08
71649;BMP180;59492;45.638;11.714;2022-09-02T03:25:22;101032.60;;;26.04
71649;BMP180;59492;45.638;11.714;2022-09-02T03:27:48;101030.80;;;26.04
71649;BMP180;59492;45.638;11.714;2022-09-02T03:30:20;101030.40;;;26.00
71649;BMP180;59492;45.638;11.714;2022-09-02T03:32:47;101026.20;;;26.00
71649;BMP180;59492;45.638;11.714;2022-09-02T03:35:29;101033.00;;;26.00
71649;BMP180;59492;45.638;11.714;2022-09-02T03:37:59;101035.20;;;26.00
71649;BMP180;59492;45.638;11.714;2022-09-02T03:43:11;101036.60;;;26.00
71649;BMP180;59492;45.638;11.714;2022-09-02T03:45:37;101037.00;;;25.96
71649;BMP180;59492;45.638;11.714;2022-09-02T03:48:06;101033.20;;;25.96
71649;BMP180;59492;45.638;11.714;2022-09-02T03:50:41;101034.20;;;25.94
71649;BMP180;59492;45.638;11.714;2022-09-02T03:53:07;101037.40;;;25.90
71649;BMP180;59492;45.638;11.714;2022-09-02T03:55:37;101041.60;;;25.92
71649;BMP180;59492;45.638;11.714;2022-09-02T03:58:06;101041.60;;;25.90
71649;BMP180;59492;45.638;11.714;2022-09-02T04:03:16;101044.80;;;25.90
71649;BMP180;59492;45.638;11.714;2022-09-02T04:05:48;101039.20;;;25.90
71649;BMP180;59492;45.638;11.714;2022-09-02T04:08:43;101039.20;;;25.90
71649;BMP180;59492;45.638;11.714;2022-09-02T04:11:13;101041.00;;;25.84
71649;BMP180;59492;45.638;11.714;2022-09-02T04:13:40;101043.20;;;25.90
71649;BMP180;59492;45.638;11.714;2022-09-02T04:16:12;101043.00;;;25.90
71649;BMP180;59492;45.638;11.714;2022-09-02T04:18:41;101041.60;;;25.90
71649;BMP180;59492;45.638;11.714;2022-09-02T04:21:11;101041.00;;;25.88
71649;BMP180;59492;45.638;11.714;2022-09-02T04:23:38;101049.80;;;25.90
71649;BMP180;59492;45.638;11.714;2022-09-02T04:26:06;101047.80;;;25.90
71649;BMP180;59492;45.638;11.714;2022-09-02T04:28:42;101049.20;;;25.86
71649;BMP180;59492;45.638;11.714;2022-09-02T04:31:12;101045.80;;;25.84
71649;BMP180;59492;45.638;11.714;2022-09-02T04:36:23;101047.60;;;25.80
71649;BMP180;59492;45.638;11.714;2022-09-02T04:38:51;101053.40;;;25.82
71649;BMP180;59492;45.638;11.714;2022-09-02T04:41:24;101055.40;;;25.80
71649;BMP180;59492;45.638;11.714;2022-09-02T04:43:51;101057.20;;;25.80
71649;BMP180;59492;45.638;11.714;2022-09-02T04:46:18;101062.40;;;25.82
71649;BMP180;59492;45.638;11.714;2022-09-02T04:48:44;101064.60;;;25.80
71649;BMP180;59492;45.638;11.714;2022-09-02T04:51:16;101064.40;;;25.80
71649;BMP180;59492;45.638;11.714;2022-09-02T04:53:43;101061.80;;;25.80
71649;BMP180;59492;45.638;11.714;2022-09-02T04:56:11;101064.00;;;25.80
71649;BMP180;59492;45.638;11.714;2022-09-02T04:58:39;101063.80;;;25.80
71649;BMP180;59492;45.638;11.714;2022-09-02T05:01:06;101065.20;;;25.80
71649;BMP180;59492;45.638;11.714;2022-09-02T05:03:33;101064.60;;;25.80
71649;BMP180;59492;45.638;11.714;2022-09-02T05:06:03;101067.00;;;25.80
71649;BMP180;59492;45.638;11.714;2022-09-02T05:08:30;101069.80;;;25.80
71649;BMP180;59492;45.638;11.714;2022-09-02T05:10:55;101073.60;;;25.80
71649;BMP180;59492;45.638;11.714;2022-09-02T05:13:22;101065.40;;;25.80
71649;BMP180;59492;45.638;11.714;2022-09-02T05:15:48;101067.20;;;25.80
71649;BMP180;59492;45.638;11.714;2022-09-02T05:18:14;101065.00;;;25.80
71649;BMP180;59492;45.638;11.714;2022-09-02T05:20:40;101064.80;;;25.80
71649;BMP180;59492;45.638;11.714;2022-09-02T05:23:11;101062.40;;;25.80
71649;BMP180;59492;45.638;11.714;2022-09-02T05:25:38;101060.20;;;25.90
71649;BMP180;59492;45.638;11.714;2022-09-02T05:28:05;101064.60;;;25.94
71649;BMP180;59492;45.638;11.714;2022-09-02T05:30:35;101068.80;;;26.00
71649;BMP180;59492;45.638;11.714;2022-09-02T05:33:00;101065.20;;;26.00
71649;BMP180;59492;45.638;11.714;2022-09-02T05:35:26;101067.20;;;26.10
71649;BMP180;59492;45.638;11.714;2022-09-02T05:37:52;101062.00;;;26.10
71649;BMP180;59492;45.638;11.714;2022-09-02T05:40:18;101064.80;;;26.20
71649;BMP180;59492;45.638;11.714;2022-09-02T05:42:43;101060.60;;;26.20
71649;BMP180;59492;45.638;11.714;2022-09-02T05:45:10;101073.60;;;26.20
71649;BMP180;59492;45.638;11.714;2022-09-02T05:47:36;101069.60;;;26.30
71649;BMP180;59492;45.638;11.714;2022-09-02T05:50:02;101048.60;;;26.30
71649;BMP180;59492;45.638;11.714;2022-09-02T05:52:28;101043.60;;;26.38
71649;BMP180;59492;45.638;11.714;2022-09-02T05:54:54;101044.80;;;26.40
71649;BMP180;59492;45.638;11.714;2022-09-02T05:57:21;101042.80;;;26.50
71649;BMP180;59492;45.638;11.714;2022-09-02T05:59:47;101057.60;;;26.60
71649;BMP180;59492;45.638;11.714;2022-09-02T06:02:16;101070.60;;;26.60
71649;BMP180;59492;45.638;11.714;2022-09-02T06:04:46;101071.60;;;26.56
71649;BMP180;59492;45.638;11.714;2022-09-02T06:07:14;101074.20;;;26.56
71649;BMP180;59492;45.638;11.714;2022-09-02T06:09:41;101076.60;;;26.58
71649;BMP180;59492;45.638;11.714;2022-09-02T06:12:10;101076.40;;;26.56
71649;BMP180;59492;45.638;11.714;2022-09-02T06:14:36;101073.40;;;26.56
71649;BMP180;59492;45.638;11.714;2022-09-02T06:17:03;101072.00;;;26.58
71649;BMP180;59492;45.638;11.714;2022-09-02T06:19:30;101074.80;;;26.60
71649;BMP180;59492;45.638;11.714;2022-09-02T06:21:58;101076.40;;;26.60
71649;BMP180;59492;45.638;11.714;2022-09-02T06:24:24;101077.80;;;26.60
71649;BMP180;59492;45.638;11.714;2022-09-02T06:26:50;101073.60;;;26.60
71649;BMP180;59492;45.638;11.714;2022-09-02T06:29:18;101070.80;;;26.60
71649;BMP180;59492;45.638;11.714;2022-09-02T06:31:48;101069.80;;;26.60
71649;BMP180;59492;45.638;11.714;2022-09-02T06:34:27;101072.80;;;26.64
71649;BMP180;59492;45.638;11.714;2022-09-02T06:36:57;101078.00;;;26.60
71649;BMP180;59492;45.638;11.714;2022-09-02T06:39:23;101077.00;;;26.62
71649;BMP180;59492;45.638;11.714;2022-09-02T06:41:50;101081.80;;;26.70
71649;BMP180;59492;45.638;11.714;2022-09-02T06:44:18;101079.40;;;26.70
71649;BMP180;59492;45.638;11.714;2022-09-02T06:46:56;101075.60;;;26.70
71649;BMP180;59492;45.638;11.714;2022-09-02T06:49:24;101076.20;;;26.70
71649;BMP180;59492;45.638;11.714;2022-09-02T06:51:52;101075.00;;;26.78
71649;BMP180;59492;45.638;11.714;2022-09-02T06:54:20;101081.40;;;26.80
71649;BMP180;59492;45.638;11.714;2022-09-02T06:56:47;101088.80;;;26.82
71649;BMP180;59492;45.638;11.714;2022-09-02T06:59:13;101093.20;;;26.84
71649;BMP180;59492;45.638;11.714;2022-09-02T07:01:39;101093.20;;;26.88
71649;BMP180;59492;45.638;11.714;2022-09-02T07:04:05;101087.40;;;26.90
71649;BMP180;59492;45.638;11.714;2022-09-02T07:06:52;101088.20;;;26.90
71649;BMP180;59492;45.638;11.714;2022-09-02T07:09:21;101092.20;;;26.90
71649;BMP180;59492;45.638;11.714;2022-09-02T07:11:48;101090.80;;;26.90
71649;BMP180;59492;45.638;11.714;2022-09-02T07:14:15;101087.60;;;26.90
71649;BMP180;59492;45.638;11.714;2022-09-02T07:16:44;101087.60;;;26.90
71649;BMP180;59492;45.638;11.714;2022-09-02T07:19:11;101093.00;;;26.90
71649;BMP180;59492;45.638;11.714;2022-09-02T07:21:37;101092.40;;;26.90
71649;BMP180;59492;45.638;11.714;2022-09-02T07:24:05;101092.40;;;26.90
71649;BMP180;59492;45.638;11.714;2022-09-02T07:26:32;101093.60;;;26.88
71649;BMP180;59492;45.638;11.714;2022-09-02T07:28:57;101091.20;;;26.90
71649;BMP180;59492;45.638;11.714;2022-09-02T07:31:23;101091.80;;;26.86
71649;BMP180;59492;45.638;11.714;2022-09-02T07:33:49;101089.20;;;26.86
71649;BMP180;59492;45.638;11.714;2022-09-02T07:36:17;101085.60;;;26.84
71649;BMP180;59492;45.638;11.714;2022-09-02T07:38:45;101084.20;;;26.82
71649;BMP180;59492;45.638;11.714;2022-09-02T07:41:14;101083.60;;;26.84
71649;BMP180;59492;45.638;11.714;2022-09-02T07:43:42;101084.40;;;26.88
71649;BMP180;59492;45.638;11.714;2022-09-02T07:46:08;101082.20;;;26.90
71649;BMP180;59492;45.638;11.714;2022-09-02T07:48:34;101077.40;;;26.90
71649;BMP180;59492;45.638;11.714;2022-09-02T07:51:01;101078.40;;;26.90
71649;BMP180;59492;45.638;11.714;2022-09-02T07:53:27;101074.00;;;26.90
71649;BMP180;59492;45.638;11.714;2022-09-02T07:55:54;101073.00;;;26.90
71649;BMP180;59492;45.638;11.714;2022-09-02T07:58:22;101078.20;;;26.90
71649;BMP180;59492;45.638;11.714;2022-09-02T08:00:49;101081.40;;;26.90
71649;BMP180;59492;45.638;11.714;2022-09-02T08:03:16;101082.80;;;26.90
71649;BMP180;59492;45.638;11.714;2022-09-02T08:05:45;101088.40;;;26.90
71649;BMP180;59492;45.638;11.714;2022-09-02T08:08:13;101087.80;;;26.90
71649;BMP180;59492;45.638;11.714;2022-09-02T08:10:40;101086.20;;;26.92
71649;BMP180;59492;45.638;11.714;2022-09-02T08:13:07;101088.60;;;26.98
71649;BMP180;59492;45.638;11.714;2022-09-02T08:15:34;101091.00;;;27.00
71649;BMP180;59492;45.638;11.714;2022-09-02T08:18:02;101092.40;;;27.00
71649;BMP180;59492;45.638;11.714;2022-09-02T08:20:28;101096.40;;;27.06
71649;BMP180;59492;45.638;11.714;2022-09-02T08:22:55;101096.20;;;27.10
71649;BMP180;59492;45.638;11.714;2022-09-02T08:25:21;101094.40;;;27.10
71649;BMP180;59492;45.638;11.714;2022-09-02T08:27:47;101094.80;;;27.20
71649;BMP180;59492;45.638;11.714;2022-09-02T08:30:14;101092.60;;;27.20
71649;BMP180;59492;45.638;11.714;2022-09-02T08:32:40;101091.60;;;27.20
71649;BMP180;59492;45.638;11.714;2022-09-02T08:35:09;101092.60;;;27.30
71649;BMP180;59492;45.638;11.714;2022-09-02T08:37:35;101094.20;;;27.30
71649;BMP180;59492;45.638;11.714;2022-09-02T08:40:03;101103.00;;;27.30
71649;BMP180;59492;45.638;11.714;2022-09-02T08:42:43;101091.80;;;27.38
71649;BMP180;59492;45.638;11.714;2022-09-02T08:45:27;101090.00;;;27.40
71649;BMP180;59492;45.638;11.714;2022-09-02T08:48:37;101088.00;;;27.40
71649;BMP180;59492;45.638;11.714;2022-09-02T08:51:09;101086.40;;;27.40
71649;BMP180;59492;45.638;11.714;2022-09-02T08:53:39;101085.80;;;27.48
71649;BMP180;59492;45.638;11.714;2022-09-02T08:56:14;101089.40;;;27.50
71649;BMP180;59492;45.638;11.714;2022-09-02T08:58:42;101085.20;;;27.50
71649;BMP180;59492;45.638;11.714;2022-09-02T09:09:21;101075.80;;;27.52
71649;BMP180;59492;45.638;11.714;2022-09-02T09:12:05;101076.60;;;27.52
71649;BMP180;59492;45.638;11.714;2022-09-02T09:17:47;101072.60;;;27.60
71649;BMP180;59492;45.638;11.714;2022-09-02T09:20:20;101069.20;;;27.60
71649;BMP180;59492;45.638;11.714;2022-09-02T09:22:48;101069.80;;;27.60
71649;BMP180;59492;45.638;11.714;2022-09-02T09:25:16;101067.80;;;27.66
71649;BMP180;59492;45.638;11.714;2022-09-02T09:27:43;101061.60;;;27.70
71649;BMP180;59492;45.638;11.714;2022-09-02T09:30:12;101062.40;;;27.70
71649;BMP180;59492;45.638;11.714;2022-09-02T09:32:46;101061.20;;;27.70
71649;BMP180;59492;45.638;11.714;2022-09-02T09:35:17;101062.80;;;27.70
71649;BMP180;59492;45.638;11.714;2022-09-02T09:37:50;101062.20;;;27.78
71649;BMP180;59492;45.638;11.714;2022-09-02T09:40:20;101060.60;;;27.80
71649;BMP180;59492;45.638;11.714;2022-09-02T09:42:53;101056.60;;;27.80
71649;BMP180;59492;45.638;11.714;2022-09-02T09:45:25;101057.00;;;27.80
71649;BMP180;59492;45.638;11.714;2022-09-02T09:50:45;101056.00;;;27.82
71649;BMP180;59492;45.638;11.714;2022-09-02T09:53:19;101053.20;;;27.90
71649;BMP180;59492;45.638;11.714;2022-09-02T09:56:00;101054.40;;;27.90
71649;BMP180;59492;45.638;11.714;2022-09-02T09:58:36;101057.20;;;27.90
71649;BMP180;59492;45.638;11.714;2022-09-02T10:01:19;101056.20;;;27.90
71649;BMP180;59492;45.638;11.714;2022-09-02T10:06:23;101053.00;;;28.00
71649;BMP180;59492;45.638;11.714;2022-09-02T10:08:57;101051.00;;;28.00
71649;BMP180;59492;45.638;11.714;2022-09-02T10:11:37;101046.00;;;28.00
71649;BMP180;59492;45.638;11.714;2022-09-02T10:14:10;101043.60;;;28.00
71649;BMP180;59492;45.638;11.714;2022-09-02T10:19:10;101038.20;;;28.00
71649;BMP180;59492;45.638;11.714;2022-09-02T10:33:18;101030.00;;;28.00
71649;BMP180;59492;45.638;11.714;2022-09-02T10:35:46;101026.20;;;28.00
71649;BMP180;59492;45.638;11.714;2022-09-02T10:38:31;101025.80;;;28.00
71649;BMP180;59492;45.638;11.714;2022-09-02T10:41:08;101027.80;;;28.00
71649;BMP180;59492;45.638;11.714;2022-09-02T10:46:23;101017.80;;;28.00
71649;BMP180;59492;45.638;11.714;2022-09-02T10:49:05;101015.00;;;28.00
71649;BMP180;59492;45.638;11.714;2022-09-02T10:54:31;101018.80;;;28.00
71649;BMP180;59492;45.638;11.714;2022-09-02T10:57:09;101018.20;;;28.00
71649;BMP180;59492;45.638;11.714;2022-09-02T11:02:24;101012.00;;;28.00
71649;BMP180;59492;45.638;11.714;2022-09-02T11:04:52;101012.00;;;28.00
71649;BMP180;59492;45.638;11.714;2022-09-02T11:07:35;101010.40;;;28.00
71649;BMP180;59492;45.638;11.714;2022-09-02T11:10:28;101009.20;;;28.00
71649;BMP180;59492;45.638;11.714;2022-09-02T11:15:52;101002.60;;;28.00
71649;BMP180;59492;45.638;11.714;2022-09-02T11:24:31;100998.60;;;27.94
71649;BMP180;59492;45.638;11.714;2022-09-02T11:30:24;100999.60;;;27.96
71649;BMP180;59492;45.638;11.714;2022-09-02T11:35:33;100993.00;;;27.92
71649;BMP180;59492;45.638;11.714;2022-09-02T11:38:01;100990.60;;;27.92
71649;BMP180;59492;45.638;11.714;2022-09-02T11:46:39;100990.60;;;27.80
71649;BMP180;59492;45.638;11.714;2022-09-02T11:54:48;100985.40;;;27.80
71649;BMP180;59492;45.638;11.714;2022-09-02T11:57:22;100979.20;;;27.80
71649;BMP180;59492;45.638;11.714;2022-09-02T12:02:38;100970.40;;;27.80
71649;BMP180;59492;45.638;11.714;2022-09-02T12:07:58;100964.40;;;27.80
71649;BMP180;59492;45.638;11.714;2022-09-02T12:13:39;100960.20;;;27.80
71649;BMP180;59492;45.638;11.714;2022-09-02T12:18:38;100958.00;;;27.80
71649;BMP180;59492;45.638;11.714;2022-09-02T12:21:09;100954.80;;;27.80
71649;BMP180;59492;45.638;11.714;2022-09-02T12:26:15;100952.60;;;27.80
71649;BMP180;59492;45.638;11.714;2022-09-02T12:28:45;100958.40;;;27.80
71649;BMP180;59492;45.638;11.714;2022-09-02T12:33:48;100950.20;;;27.80
71649;BMP180;59492;45.638;11.714;2022-09-02T12:44:44;100938.40;;;27.70
71649;BMP180;59492;45.638;11.714;2022-09-02T12:47:26;100935.80;;;27.70
71649;BMP180;59492;45.638;11.714;2022-09-02T12:50:08;100929.20;;;27.70
71649;BMP180;59492;45.638;11.714;2022-09-02T12:55:28;100922.40;;;27.70
71649;BMP180;59492;45.638;11.714;2022-09-02T12:58:12;100910.80;;;27.70
71649;BMP180;59492;45.638;11.714;2022-09-02T13:06:39;100898.40;;;27.60
71649;BMP180;59492;45.638;11.714;2022-09-02T13:09:33;100894.00;;;27.62
71649;BMP180;59492;45.638;11.714;2022-09-02T13:15:17;100887.00;;;27.60
71649;BMP180;59492;45.638;11.714;2022-09-02T13:17:46;100882.00;;;27.60
71649;BMP180;59492;45.638;11.714;2022-09-02T13:28:50;100872.80;;;27.56
71649;BMP180;59492;45.638;11.714;2022-09-02T13:31:22;100871.80;;;27.54
71649;BMP180;59492;45.638;11.714;2022-09-02T13:34:11;100867.20;;;27.60
71649;BMP180;59492;45.638;11.714;2022-09-02T13:36:43;100870.00;;;27.50
71649;BMP180;59492;45.638;11.714;2022-09-02T13:39:17;100871.80;;;27.56
71649;BMP180;59492;45.638;11.714;2022-09-02T13:41:43;100870.20;;;27.52
71649;BMP180;59492;45.638;11.714;2022-09-02T13:44:18;100870.80;;;27.54
71649;BMP180;59492;45.638;11.714;2022-09-02T13:46:49;100871.80;;;27.50
71649;BMP180;59492;45.638;11.714;2022-09-02T13:49:27;100875.00;;;27.52
71649;BMP180;59492;45.638;11.714;2022-09-02T13:51:55;100876.80;;;27.50
71649;BMP180;59492;45.638;11.714;2022-09-02T13:54:35;100881.20;;;27.50
71649;BMP180;59492;45.638;11.714;2022-09-02T13:57:06;100879.40;;;27.50
71649;BMP180;59492;45.638;11.714;2022-09-02T13:59:38;100874.80;;;27.50
71649;BMP180;59492;45.638;11.714;2022-09-02T14:02:16;100872.80;;;27.50
71649;BMP180;59492;45.638;11.714;2022-09-02T14:04:43;100868.40;;;27.40
71649;BMP180;59492;45.638;11.714;2022-09-02T14:07:12;100867.00;;;27.44
71649;BMP180;59492;45.638;11.714;2022-09-02T14:09:41;100864.00;;;27.48
71649;BMP180;59492;45.638;11.714;2022-09-02T14:12:08;100859.40;;;27.48
71649;BMP180;59492;45.638;11.714;2022-09-02T14:14:36;100858.40;;;27.46
71649;BMP180;59492;45.638;11.714;2022-09-02T14:17:25;100858.00;;;27.46
71649;BMP180;59492;45.638;11.714;2022-09-02T14:20:16;100859.60;;;27.40
71649;BMP180;59492;45.638;11.714;2022-09-02T14:22:43;100854.00;;;27.40
71649;BMP180;59492;45.638;11.714;2022-09-02T14:25:15;100853.20;;;27.40
71649;BMP180;59492;45.638;11.714;2022-09-02T14:27:52;100853.20;;;27.40
71649;BMP180;59492;45.638;11.714;2022-09-02T14:30:37;100856.00;;;27.40
71649;BMP180;59492;45.638;11.714;2022-09-02T14:33:23;100854.60;;;27.40
71649;BMP180;59492;45.638;11.714;2022-09-02T14:36:03;100853.60;;;27.40
71649;BMP180;59492;45.638;11.714;2022-09-02T14:38:55;100846.60;;;27.40
71649;BMP180;59492;45.638;11.714;2022-09-02T14:41:28;100841.80;;;27.34
71649;BMP180;59492;45.638;11.714;2022-09-02T14:43:59;100838.80;;;27.40
71649;BMP180;59492;45.638;11.714;2022-09-02T14:46:45;100833.80;;;27.38
71649;BMP180;59492;45.638;11.714;2022-09-02T14:49:29;100829.20;;;27.34
71649;BMP180;59492;45.638;11.714;2022-09-02T14:51:58;100829.00;;;27.32
71649;BMP180;59492;45.638;11.714;2022-09-02T14:54:34;100826.00;;;27.34
71649;BMP180;59492;45.638;11.714;2022-09-02T14:57:00;100824.60;;;27.32
71649;BMP180;59492;45.638;11.714;2022-09-02T14:59:25;100823.20;;;27.32
71649;BMP180;59492;45.638;11.714;2022-09-02T15:01:52;100820.00;;;27.30
71649;BMP180;59492;45.638;11.714;2022-09-02T15:04:19;100815.00;;;27.30
71649;BMP180;59492;45.638;11.714;2022-09-02T15:06:46;100812.60;;;27.30
71649;BMP180;59492;45.638;11.714;2022-09-02T15:09:13;100806.20;;;27.30
71649;BMP180;59492;45.638;11.714;2022-09-02T15:11:50;100810.40;;;27.30
71649;BMP180;59492;45.638;11.714;2022-09-02T15:14:17;100808.20;;;27.30
71649;BMP180;59492;45.638;11.714;2022-09-02T15:16:43;100802.80;;;27.30
71649;BMP180;59492;45.638;11.714;2022-09-02T15:19:08;100801.80;;;27.30
71649;BMP180;59492;45.638;11.714;2022-09-02T15:21:34;100804.40;;;27.30
71649;BMP180;59492;45.638;11.714;2022-09-02T15:23:59;100806.80;;;27.30
71649;BMP180;59492;45.638;11.714;2022-09-02T15:26:25;100808.60;;;27.28
71649;BMP180;59492;45.638;11.714;2022-09-02T15:28:50;100810.00;;;27.30
71649;BMP180;59492;45.638;11.714;2022-09-02T15:31:16;100807.40;;;27.26
71649;BMP180;59492;45.638;11.714;2022-09-02T15:33:48;100812.00;;;27.22
71649;BMP180;59492;45.638;11.714;2022-09-02T15:36:13;100810.40;;;27.20
71649;BMP180;59492;45.638;11.714;2022-09-02T15:38:39;100813.20;;;27.20
71649;BMP180;59492;45.638;11.714;2022-09-02T15:41:20;100816.40;;;27.20
71649;BMP180;59492;45.638;11.714;2022-09-02T15:43:46;100815.80;;;27.20
71649;BMP180;59492;45.638;11.714;2022-09-02T15:46:22;100820.80;;;27.20
71649;BMP180;59492;45.638;11.714;2022-09-02T15:48:48;100826.60;;;27.20
71649;BMP180;59492;45.638;11.714;2022-09-02T15:51:16;100829.60;;;27.20
71649;BMP180;59492;45.638;11.714;2022-09-02T15:53:42;100828.20;;;27.20
71649;BMP180;59492;45.638;11.714;2022-09-02T15:56:16;100830.00;;;27.20
71649;BMP180;59492;45.638;11.714;2022-09-02T15:58:42;100834.80;;;27.18
71649;BMP180;59492;45.638;11.714;2022-09-02T16:01:08;100836.00;;;27.16
71649;BMP180;59492;45.638;11.714;2022-09-02T16:03:34;100835.20;;;27.16
71649;BMP180;59492;45.638;11.714;2022-09-02T16:06:02;100830.60;;;27.10